sensor_id;sensor_type;location;lat;lon;timestamp;temperature;humidity
26583;DHT22;14230;45.382;10.998;2022-08-03T00:01:52;25.50;99.90
26583;DHT22;14230;45.382;10.998;2022-08-03T00:04:20;25.50;99.90
26583;DHT22;14230;45.382;10.998;2022-08-03T00:07:00;25.50;99.90
26583;DHT22;14230;45.382;10.998;2022-08-03T00:09:29;25.50;99.90
26583;DHT22;14230;45.382;10.998;2022-08-03T00:12:05;25.40;99.90
26583;DHT22;14230;45.382;10.998;2022-08-03T00:14:33;25.40;99.90
26583;DHT22;14230;45.382;10.998;2022-08-03T00:17:02;25.30;99.90
26583;DHT22;14230;45.382;10.998;2022-08-03T00:19:30;25.20;99.90
26583;DHT22;14230;45.382;10.998;2022-08-03T00:21:57;25.10;99.90
26583;DHT22;14230;45.382;10.998;2022-08-03T00:24:25;25.10;99.90
26583;DHT22;14230;45.382;10.998;2022-08-03T00:26:53;24.90;99.90
26583;DHT22;14230;45.382;10.998;2022-08-03T00:29:21;24.80;99.90
26583;DHT22;14230;45.382;10.998;2022-08-03T00:31:48;24.70;99.90
26583;DHT22;14230;45.382;10.998;2022-08-03T00:34:27;24.60;99.90
26583;DHT22;14230;45.382;10.998;2022-08-03T00:37:14;24.40;99.90
26583;DHT22;14230;45.382;10.998;2022-08-03T00:39:42;24.40;99.90
26583;DHT22;14230;45.382;10.998;2022-08-03T00:42:12;24.40;99.90
26583;DHT22;14230;45.382;10.998;2022-08-03T00:44:42;24.40;99.90
26583;DHT22;14230;45.382;10.998;2022-08-03T00:47:10;24.40;99.90
26583;DHT22;14230;45.382;10.998;2022-08-03T00:49:41;24.40;99.90
26583;DHT22;14230;45.382;10.998;2022-08-03T00:52:10;24.50;99.90
26583;DHT22;14230;45.382;10.998;2022-08-03T00:54:38;24.50;99.90
26583;DHT22;14230;45.382;10.998;2022-08-03T00:57:06;24.60;99.90
26583;DHT22;14230;45.382;10.998;2022-08-03T00:59:34;24.60;99.90
26583;DHT22;14230;45.382;10.998;2022-08-03T01:02:01;24.60;99.90
26583;DHT22;14230;45.382;10.998;2022-08-03T01:04:29;24.60;99.90
26583;DHT22;14230;45.382;10.998;2022-08-03T01:07:05;24.60;99.90
26583;DHT22;14230;45.382;10.998;2022-08-03T01:18:13;24.60;99.90
26583;DHT22;14230;45.382;10.998;2022-08-03T01:20:46;24.70;99.90
26583;DHT22;14230;45.382;10.998;2022-08-03T01:26:18;24.60;99.90
26583;DHT22;14230;45.382;10.998;2022-08-03T01:31:56;24.50;99.90
26583;DHT22;14230;45.382;10.998;2022-08-03T01:35:24;24.40;99.90
26583;DHT22;14230;45.382;10.998;2022-08-03T01:37:52;24.50;99.90
26583;DHT22;14230;45.382;10.998;2022-08-03T01:40:24;24.50;99.90
26583;DHT22;14230;45.382;10.998;2022-08-03T01:42:53;24.50;99.90
26583;DHT22;14230;45.382;10.998;2022-08-03T01:45:23;24.40;99.90
26583;DHT22;14230;45.382;10.998;2022-08-03T01:48:02;24.40;99.90
26583;DHT22;14230;45.382;10.998;2022-08-03T01:50:32;24.40;99.90
26583;DHT22;14230;45.382;10.998;2022-08-03T01:53:02;24.40;99.90
26583;DHT22;14230;45.382;10.998;2022-08-03T01:55:30;24.40;99.90
26583;DHT22;14230;45.382;10.998;2022-08-03T01:58:06;24.40;99.90
26583;DHT22;14230;45.382;10.998;2022-08-03T02:00:44;24.40;99.90
26583;DHT22;14230;45.382;10.998;2022-08-03T02:03:14;24.40;99.90
26583;DHT22;14230;45.382;10.998;2022-08-03T02:05:44;24.50;99.90
26583;DHT22;14230;45.382;10.998;2022-08-03T02:08:18;24.40;99.90
26583;DHT22;14230;45.382;10.998;2022-08-03T02:10:49;24.50;99.90
26583;DHT22;14230;45.382;10.998;2022-08-03T02:13:21;24.50;99.90
26583;DHT22;14230;45.382;10.998;2022-08-03T02:15:51;24.50;99.90
26583;DHT22;14230;45.382;10.998;2022-08-03T02:18:20;24.50;99.90
26583;DHT22;14230;45.382;10.998;2022-08-03T02:20:52;24.50;99.90
26583;DHT22;14230;45.382;10.998;2022-08-03T02:23:21;24.50;99.90
26583;DHT22;14230;45.382;10.998;2022-08-03T02:25:59;24.60;99.90
26583;DHT22;14230;45.382;10.998;2022-08-03T02:28:34;24.60;99.90
26583;DHT22;14230;45.382;10.998;2022-08-03T02:31:21;24.60;99.90
26583;DHT22;14230;45.382;10.998;2022-08-03T02:33:56;24.60;99.90
26583;DHT22;14230;45.382;10.998;2022-08-03T02:36:31;24.60;99.90
26583;DHT22;14230;45.382;10.998;2022-08-03T02:39:01;24.70;99.90
26583;DHT22;14230;45.382;10.998;2022-08-03T02:41:42;24.70;99.90
26583;DHT22;14230;45.382;10.998;2022-08-03T02:44:12;24.70;99.90
26583;DHT22;14230;45.382;10.998;2022-08-03T02:46:44;24.60;99.90
26583;DHT22;14230;45.382;10.998;2022-08-03T02:49:13;24.60;99.90
26583;DHT22;14230;45.382;10.998;2022-08-03T02:52:03;24.60;99.90
26583;DHT22;14230;45.382;10.998;2022-08-03T02:54:39;24.50;99.90
26583;DHT22;14230;45.382;10.998;2022-08-03T02:57:08;24.50;99.90
26583;DHT22;14230;45.382;10.998;2022-08-03T02:59:41;24.50;99.90
26583;DHT22;14230;45.382;10.998;2022-08-03T03:02:11;24.50;99.90
26583;DHT22;14230;45.382;10.998;2022-08-03T03:04:42;24.50;99.90
26583;DHT22;14230;45.382;10.998;2022-08-03T03:07:31;24.50;99.90
26583;DHT22;14230;45.382;10.998;2022-08-03T03:10:21;24.50;99.90
26583;DHT22;14230;45.382;10.998;2022-08-03T03:12:51;24.40;99.90
26583;DHT22;14230;45.382;10.998;2022-08-03T03:15:20;24.40;99.90
26583;DHT22;14230;45.382;10.998;2022-08-03T03:17:49;24.40;99.90
26583;DHT22;14230;45.382;10.998;2022-08-03T03:20:18;24.30;99.90
26583;DHT22;14230;45.382;10.998;2022-08-03T03:23:00;24.30;99.90
26583;DHT22;14230;45.382;10.998;2022-08-03T03:25:32;24.30;99.90
26583;DHT22;14230;45.382;10.998;2022-08-03T03:28:00;24.20;99.90
26583;DHT22;14230;45.382;10.998;2022-08-03T03:30:29;24.20;99.90
26583;DHT22;14230;45.382;10.998;2022-08-03T03:32:57;24.20;99.90
26583;DHT22;14230;45.382;10.998;2022-08-03T03:35:26;24.20;99.90
26583;DHT22;14230;45.382;10.998;2022-08-03T03:37:54;24.20;99.90
26583;DHT22;14230;45.382;10.998;2022-08-03T03:40:21;24.10;99.90
26583;DHT22;14230;45.382;10.998;2022-08-03T03:42:49;24.20;99.90
26583;DHT22;14230;45.382;10.998;2022-08-03T03:45:17;24.20;99.90
26583;DHT22;14230;45.382;10.998;2022-08-03T03:47:45;24.10;99.90
26583;DHT22;14230;45.382;10.998;2022-08-03T03:50:14;24.10;99.90
26583;DHT22;14230;45.382;10.998;2022-08-03T03:52:44;24.10;99.90
26583;DHT22;14230;45.382;10.998;2022-08-03T03:55:15;24.10;99.90
26583;DHT22;14230;45.382;10.998;2022-08-03T03:57:43;24.00;99.90
26583;DHT22;14230;45.382;10.998;2022-08-03T04:00:13;24.00;99.90
26583;DHT22;14230;45.382;10.998;2022-08-03T04:02:41;24.00;99.90
26583;DHT22;14230;45.382;10.998;2022-08-03T04:05:08;23.90;99.90
26583;DHT22;14230;45.382;10.998;2022-08-03T04:10:52;23.90;99.90
26583;DHT22;14230;45.382;10.998;2022-08-03T04:16:17;24.00;99.90
26583;DHT22;14230;45.382;10.998;2022-08-03T04:18:50;24.00;99.90
26583;DHT22;14230;45.382;10.998;2022-08-03T04:21:20;24.00;99.90
26583;DHT22;14230;45.382;10.998;2022-08-03T04:23:53;24.10;99.90
26583;DHT22;14230;45.382;10.998;2022-08-03T04:26:23;24.10;99.90
26583;DHT22;14230;45.382;10.998;2022-08-03T04:28:54;24.10;99.90
26583;DHT22;14230;45.382;10.998;2022-08-03T04:31:23;24.20;99.90
26583;DHT22;14230;45.382;10.998;2022-08-03T04:33:52;24.30;99.90
26583;DHT22;14230;45.382;10.998;2022-08-03T04:36:22;24.30;99.90
26583;DHT22;14230;45.382;10.998;2022-08-03T04:39:27;24.40;99.90
26583;DHT22;14230;45.382;10.998;2022-08-03T04:42:02;24.50;99.90
26583;DHT22;14230;45.382;10.998;2022-08-03T04:44:37;24.50;99.90
26583;DHT22;14230;45.382;10.998;2022-08-03T04:47:07;24.50;99.90
26583;DHT22;14230;45.382;10.998;2022-08-03T04:49:37;24.60;99.90
26583;DHT22;14230;45.382;10.998;2022-08-03T04:52:07;24.60;99.90
26583;DHT22;14230;45.382;10.998;2022-08-03T04:54:41;24.70;99.90
26583;DHT22;14230;45.382;10.998;2022-08-03T04:57:17;24.80;99.90
26583;DHT22;14230;45.382;10.998;2022-08-03T04:59:51;24.90;99.90
26583;DHT22;14230;45.382;10.998;2022-08-03T05:02:30;25.00;99.90
26583;DHT22;14230;45.382;10.998;2022-08-03T05:04:58;25.10;99.90
26583;DHT22;14230;45.382;10.998;2022-08-03T05:07:26;25.10;99.90
26583;DHT22;14230;45.382;10.998;2022-08-03T05:10:07;25.20;99.90
26583;DHT22;14230;45.382;10.998;2022-08-03T05:12:44;25.30;99.90
26583;DHT22;14230;45.382;10.998;2022-08-03T05:15:12;25.30;99.90
26583;DHT22;14230;45.382;10.998;2022-08-03T05:17:39;25.30;99.90
26583;DHT22;14230;45.382;10.998;2022-08-03T05:20:08;25.50;99.90
26583;DHT22;14230;45.382;10.998;2022-08-03T05:22:36;25.60;99.90
26583;DHT22;14230;45.382;10.998;2022-08-03T05:25:04;25.60;99.90
26583;DHT22;14230;45.382;10.998;2022-08-03T05:27:31;25.70;99.90
26583;DHT22;14230;45.382;10.998;2022-08-03T05:29:59;25.70;99.90
26583;DHT22;14230;45.382;10.998;2022-08-03T05:32:46;25.80;99.90
26583;DHT22;14230;45.382;10.998;2022-08-03T05:35:14;25.80;99.90
26583;DHT22;14230;45.382;10.998;2022-08-03T05:38:04;25.90;99.90
26583;DHT22;14230;45.382;10.998;2022-08-03T05:40:35;26.00;99.90
26583;DHT22;14230;45.382;10.998;2022-08-03T05:43:03;26.20;99.90
26583;DHT22;14230;45.382;10.998;2022-08-03T05:45:31;26.30;99.90
26583;DHT22;14230;45.382;10.998;2022-08-03T05:47:58;26.40;99.90
26583;DHT22;14230;45.382;10.998;2022-08-03T05:50:26;26.60;99.90
26583;DHT22;14230;45.382;10.998;2022-08-03T05:52:57;27.00;99.90
26583;DHT22;14230;45.382;10.998;2022-08-03T05:55:24;27.30;99.90
26583;DHT22;14230;45.382;10.998;2022-08-03T05:57:52;27.90;99.90
26583;DHT22;14230;45.382;10.998;2022-08-03T06:00:25;28.40;99.90
26583;DHT22;14230;45.382;10.998;2022-08-03T06:02:53;29.20;99.90
26583;DHT22;14230;45.382;10.998;2022-08-03T06:05:21;29.80;99.90
26583;DHT22;14230;45.382;10.998;2022-08-03T06:07:48;30.50;99.90
26583;DHT22;14230;45.382;10.998;2022-08-03T06:10:16;31.30;99.90
26583;DHT22;14230;45.382;10.998;2022-08-03T06:13:04;31.60;99.90
26583;DHT22;14230;45.382;10.998;2022-08-03T06:15:31;31.80;99.90
26583;DHT22;14230;45.382;10.998;2022-08-03T06:18:00;32.30;99.90
26583;DHT22;14230;45.382;10.998;2022-08-03T06:20:28;32.80;99.90
26583;DHT22;14230;45.382;10.998;2022-08-03T06:22:56;32.90;99.90
26583;DHT22;14230;45.382;10.998;2022-08-03T06:25:27;32.90;99.90
26583;DHT22;14230;45.382;10.998;2022-08-03T06:27:55;33.30;99.90
26583;DHT22;14230;45.382;10.998;2022-08-03T06:30:23;33.70;99.90
26583;DHT22;14230;45.382;10.998;2022-08-03T06:32:50;34.10;99.90
26583;DHT22;14230;45.382;10.998;2022-08-03T06:35:18;34.40;99.90
26583;DHT22;14230;45.382;10.998;2022-08-03T06:37:47;34.60;99.90
26583;DHT22;14230;45.382;10.998;2022-08-03T06:40:18;35.30;99.90
26583;DHT22;14230;45.382;10.998;2022-08-03T06:42:49;35.80;98.70
26583;DHT22;14230;45.382;10.998;2022-08-03T06:45:16;35.90;98.10
26583;DHT22;14230;45.382;10.998;2022-08-03T06:47:44;36.40;97.10
26583;DHT22;14230;45.382;10.998;2022-08-03T06:50:11;36.90;96.30
26583;DHT22;14230;45.382;10.998;2022-08-03T06:52:44;37.20;95.50
26583;DHT22;14230;45.382;10.998;2022-08-03T06:55:11;37.90;93.70
26583;DHT22;14230;45.382;10.998;2022-08-03T06:57:39;38.20;91.90
26583;DHT22;14230;45.382;10.998;2022-08-03T07:00:07;38.90;90.90
26583;DHT22;14230;45.382;10.998;2022-08-03T07:02:39;39.00;89.10
26583;DHT22;14230;45.382;10.998;2022-08-03T07:05:08;39.40;88.00
26583;DHT22;14230;45.382;10.998;2022-08-03T07:07:36;39.70;84.80
26583;DHT22;14230;45.382;10.998;2022-08-03T07:19:05;40.20;80.60
26583;DHT22;14230;45.382;10.998;2022-08-03T07:35:19;40.40;75.00
26583;DHT22;14230;45.382;10.998;2022-08-03T08:04:10;39.90;70.80
26583;DHT22;14230;45.382;10.998;2022-08-03T08:58:58;42.10;61.40
26583;DHT22;14230;45.382;10.998;2022-08-03T09:45:30;41.90;57.20
26583;DHT22;14230;45.382;10.998;2022-08-03T09:48:41;41.90;57.30
26583;DHT22;14230;45.382;10.998;2022-08-03T09:56:22;42.00;55.20
26583;DHT22;14230;45.382;10.998;2022-08-03T10:03:41;41.70;55.70
26583;DHT22;14230;45.382;10.998;2022-08-03T10:11:36;41.80;55.80
26583;DHT22;14230;45.382;10.998;2022-08-03T10:19:22;41.70;55.90
26583;DHT22;14230;45.382;10.998;2022-08-03T10:21:59;42.10;56.60
26583;DHT22;14230;45.382;10.998;2022-08-03T10:24:30;42.10;56.20
26583;DHT22;14230;45.382;10.998;2022-08-03T10:27:14;42.10;56.60
26583;DHT22;14230;45.382;10.998;2022-08-03T10:29:54;41.90;58.10
26583;DHT22;14230;45.382;10.998;2022-08-03T10:32:51;41.60;58.30
26583;DHT22;14230;45.382;10.998;2022-08-03T10:35:26;40.90;58.90
26583;DHT22;14230;45.382;10.998;2022-08-03T10:40:37;40.00;59.00
26583;DHT22;14230;45.382;10.998;2022-08-03T10:43:35;40.10;60.30
26583;DHT22;14230;45.382;10.998;2022-08-03T10:46:07;40.70;59.70
26583;DHT22;14230;45.382;10.998;2022-08-03T10:48:35;41.50;59.30
26583;DHT22;14230;45.382;10.998;2022-08-03T10:53:59;42.30;57.90
26583;DHT22;14230;45.382;10.998;2022-08-03T10:59:19;42.10;57.30
26583;DHT22;14230;45.382;10.998;2022-08-03T11:02:06;40.90;58.20
26583;DHT22;14230;45.382;10.998;2022-08-03T11:04:37;40.10;59.50
26583;DHT22;14230;45.382;10.998;2022-08-03T11:07:19;39.80;60.40
26583;DHT22;14230;45.382;10.998;2022-08-03T11:09:52;39.60;60.10
26583;DHT22;14230;45.382;10.998;2022-08-03T11:15:05;36.40;65.20
26583;DHT22;14230;45.382;10.998;2022-08-03T11:17:36;35.60;68.30
26583;DHT22;14230;45.382;10.998;2022-08-03T11:20:56;35.20;68.00
26583;DHT22;14230;45.382;10.998;2022-08-03T11:23:53;34.80;70.30
26583;DHT22;14230;45.382;10.998;2022-08-03T11:30:16;33.80;72.50
26583;DHT22;14230;45.382;10.998;2022-08-03T11:33:02;33.50;72.80
26583;DHT22;14230;45.382;10.998;2022-08-03T11:35:32;33.50;73.00
26583;DHT22;14230;45.382;10.998;2022-08-03T11:38:16;33.40;72.40
26583;DHT22;14230;45.382;10.998;2022-08-03T11:46:08;33.30;73.50
26583;DHT22;14230;45.382;10.998;2022-08-03T11:49:03;33.20;73.90
26583;DHT22;14230;45.382;10.998;2022-08-03T11:51:36;33.20;73.30
26583;DHT22;14230;45.382;10.998;2022-08-03T11:54:05;33.20;73.50
26583;DHT22;14230;45.382;10.998;2022-08-03T11:56:52;33.20;73.70
26583;DHT22;14230;45.382;10.998;2022-08-03T11:59:57;33.30;76.00
26583;DHT22;14230;45.382;10.998;2022-08-03T12:13:21;33.50;77.30
26583;DHT22;14230;45.382;10.998;2022-08-03T12:16:46;33.60;77.50
26583;DHT22;14230;45.382;10.998;2022-08-03T12:19:14;33.60;78.60
26583;DHT22;14230;45.382;10.998;2022-08-03T12:21:46;33.50;79.40
26583;DHT22;14230;45.382;10.998;2022-08-03T12:24:23;33.30;80.40
26583;DHT22;14230;45.382;10.998;2022-08-03T12:26:54;33.40;80.60
26583;DHT22;14230;45.382;10.998;2022-08-03T12:29:26;33.50;81.70
26583;DHT22;14230;45.382;10.998;2022-08-03T12:31:56;33.30;79.20
26583;DHT22;14230;45.382;10.998;2022-08-03T12:34:44;33.00;80.70
26583;DHT22;14230;45.382;10.998;2022-08-03T12:37:17;33.10;81.70
26583;DHT22;14230;45.382;10.998;2022-08-03T12:39:50;33.20;80.10
26583;DHT22;14230;45.382;10.998;2022-08-03T12:42:33;33.30;81.30
26583;DHT22;14230;45.382;10.998;2022-08-03T12:45:24;33.40;81.70
26583;DHT22;14230;45.382;10.998;2022-08-03T12:47:56;33.50;81.60
26583;DHT22;14230;45.382;10.998;2022-08-03T12:50:29;33.60;81.40
26583;DHT22;14230;45.382;10.998;2022-08-03T12:53:00;33.60;80.60
26583;DHT22;14230;45.382;10.998;2022-08-03T12:55:27;33.50;80.00
26583;DHT22;14230;45.382;10.998;2022-08-03T12:58:34;33.50;80.10
26583;DHT22;14230;45.382;10.998;2022-08-03T13:01:03;33.50;80.40
26583;DHT22;14230;45.382;10.998;2022-08-03T13:06:13;33.30;81.50
26583;DHT22;14230;45.382;10.998;2022-08-03T13:08:41;33.40;80.20
26583;DHT22;14230;45.382;10.998;2022-08-03T13:11:23;33.40;80.80
26583;DHT22;14230;45.382;10.998;2022-08-03T13:14:11;33.50;79.40
26583;DHT22;14230;45.382;10.998;2022-08-03T13:16:47;33.50;79.90
26583;DHT22;14230;45.382;10.998;2022-08-03T13:19:14;33.50;80.60
26583;DHT22;14230;45.382;10.998;2022-08-03T13:21:43;33.60;80.10
26583;DHT22;14230;45.382;10.998;2022-08-03T13:24:32;33.70;80.30
26583;DHT22;14230;45.382;10.998;2022-08-03T13:27:00;33.70;80.30
26583;DHT22;14230;45.382;10.998;2022-08-03T13:29:49;33.80;79.50
26583;DHT22;14230;45.382;10.998;2022-08-03T13:32:16;33.80;79.60
26583;DHT22;14230;45.382;10.998;2022-08-03T13:34:43;33.70;79.70
26583;DHT22;14230;45.382;10.998;2022-08-03T13:37:11;33.70;80.50
26583;DHT22;14230;45.382;10.998;2022-08-03T13:39:39;33.70;79.20
26583;DHT22;14230;45.382;10.998;2022-08-03T13:42:30;33.80;79.40
26583;DHT22;14230;45.382;10.998;2022-08-03T13:44:58;33.90;79.10
26583;DHT22;14230;45.382;10.998;2022-08-03T13:47:27;34.00;78.70
26583;DHT22;14230;45.382;10.998;2022-08-03T13:49:55;34.00;78.70
26583;DHT22;14230;45.382;10.998;2022-08-03T13:52:30;34.10;78.70
26583;DHT22;14230;45.382;10.998;2022-08-03T13:54:58;34.10;79.00
26583;DHT22;14230;45.382;10.998;2022-08-03T13:57:27;34.10;78.90
26583;DHT22;14230;45.382;10.998;2022-08-03T14:00:16;34.00;79.70
26583;DHT22;14230;45.382;10.998;2022-08-03T14:03:00;33.90;79.80
26583;DHT22;14230;45.382;10.998;2022-08-03T14:05:41;33.70;80.10
26583;DHT22;14230;45.382;10.998;2022-08-03T14:08:10;33.60;80.20
26583;DHT22;14230;45.382;10.998;2022-08-03T14:10:40;33.60;80.90
26583;DHT22;14230;45.382;10.998;2022-08-03T14:13:10;33.60;81.00
26583;DHT22;14230;45.382;10.998;2022-08-03T14:15:38;33.60;80.60
26583;DHT22;14230;45.382;10.998;2022-08-03T14:18:08;33.60;81.20
26583;DHT22;14230;45.382;10.998;2022-08-03T14:20:43;33.50;81.30
26583;DHT22;14230;45.382;10.998;2022-08-03T14:23:17;33.60;81.70
26583;DHT22;14230;45.382;10.998;2022-08-03T14:25:46;33.60;82.00
26583;DHT22;14230;45.382;10.998;2022-08-03T14:28:21;33.70;80.30
26583;DHT22;14230;45.382;10.998;2022-08-03T14:30:50;33.70;80.70
26583;DHT22;14230;45.382;10.998;2022-08-03T14:33:18;33.70;80.40
26583;DHT22;14230;45.382;10.998;2022-08-03T14:35:47;33.60;81.00
26583;DHT22;14230;45.382;10.998;2022-08-03T14:38:17;33.60;81.10
26583;DHT22;14230;45.382;10.998;2022-08-03T14:40:45;33.70;80.40
26583;DHT22;14230;45.382;10.998;2022-08-03T14:43:12;33.70;80.30
26583;DHT22;14230;45.382;10.998;2022-08-03T14:45:40;33.60;81.00
26583;DHT22;14230;45.382;10.998;2022-08-03T14:48:08;33.60;80.20
26583;DHT22;14230;45.382;10.998;2022-08-03T14:50:55;33.60;81.60
26583;DHT22;14230;45.382;10.998;2022-08-03T14:53:23;33.60;82.20
26583;DHT22;14230;45.382;10.998;2022-08-03T14:55:51;33.60;79.90
26583;DHT22;14230;45.382;10.998;2022-08-03T14:58:21;33.60;80.30
26583;DHT22;14230;45.382;10.998;2022-08-03T15:00:50;33.60;81.80
26583;DHT22;14230;45.382;10.998;2022-08-03T15:03:19;33.60;81.40
26583;DHT22;14230;45.382;10.998;2022-08-03T15:05:55;33.60;82.20
26583;DHT22;14230;45.382;10.998;2022-08-03T15:08:26;33.60;82.30
26583;DHT22;14230;45.382;10.998;2022-08-03T15:10:54;33.60;80.90
26583;DHT22;14230;45.382;10.998;2022-08-03T15:13:26;33.60;80.90
26583;DHT22;14230;45.382;10.998;2022-08-03T15:16:16;33.60;79.70
26583;DHT22;14230;45.382;10.998;2022-08-03T15:19:14;33.60;81.50
26583;DHT22;14230;45.382;10.998;2022-08-03T15:22:30;33.60;82.00
26583;DHT22;14230;45.382;10.998;2022-08-03T15:25:33;33.70;81.20
26583;DHT22;14230;45.382;10.998;2022-08-03T15:28:30;33.80;80.60
26583;DHT22;14230;45.382;10.998;2022-08-03T15:31:26;33.90;80.40
26583;DHT22;14230;45.382;10.998;2022-08-03T15:34:17;33.90;80.20
26583;DHT22;14230;45.382;10.998;2022-08-03T15:37:30;33.90;80.70
26583;DHT22;14230;45.382;10.998;2022-08-03T15:44:13;33.80;80.80
26583;DHT22;14230;45.382;10.998;2022-08-03T15:46:55;33.70;79.50
26583;DHT22;14230;45.382;10.998;2022-08-03T15:49:42;33.60;79.60
26583;DHT22;14230;45.382;10.998;2022-08-03T15:52:46;33.60;80.40
26583;DHT22;14230;45.382;10.998;2022-08-03T15:55:19;33.70;79.80
26583;DHT22;14230;45.382;10.998;2022-08-03T15:58:11;33.70;79.50
26583;DHT22;14230;45.382;10.998;2022-08-03T16:01:29;33.60;80.70
26583;DHT22;14230;45.382;10.998;2022-08-03T16:04:12;33.60;80.90
26583;DHT22;14230;45.382;10.998;2022-08-03T16:07:36;33.50;80.50
26583;DHT22;14230;45.382;10.998;2022-08-03T16:10:35;33.50;80.90
26583;DHT22;14230;45.382;10.998;2022-08-03T16:13:42;33.50;80.80
26583;DHT22;14230;45.382;10.998;2022-08-03T16:19:38;33.40;81.10
26583;DHT22;14230;45.382;10.998;2022-08-03T16:22:17;33.30;79.80
26583;DHT22;14230;45.382;10.998;2022-08-03T16:25:33;33.40;79.70
26583;DHT22;14230;45.382;10.998;2022-08-03T16:28:02;33.30;81.60
26583;DHT22;14230;45.382;10.998;2022-08-03T16:30:40;33.30;82.00
26583;DHT22;14230;45.382;10.998;2022-08-03T16:33:08;33.30;82.60
26583;DHT22;14230;45.382;10.998;2022-08-03T16:35:37;33.20;83.00
26583;DHT22;14230;45.382;10.998;2022-08-03T16:38:05;33.10;82.90
26583;DHT22;14230;45.382;10.998;2022-08-03T16:40:37;33.10;83.50
26583;DHT22;14230;45.382;10.998;2022-08-03T16:43:14;33.10;83.20
26583;DHT22;14230;45.382;10.998;2022-08-03T16:45:46;33.10;83.40
26583;DHT22;14230;45.382;10.998;2022-08-03T16:48:14;33.10;83.90
26583;DHT22;14230;45.382;10.998;2022-08-03T16:50:43;33.10;84.30
26583;DHT22;14230;45.382;10.998;2022-08-03T16:53:11;33.10;84.40
26583;DHT22;14230;45.382;10.998;2022-08-03T16:55:43;33.00;84.80
26583;DHT22;14230;45.382;10.998;2022-08-03T16:58:22;32.90;85.10
26583;DHT22;14230;45.382;10.998;2022-08-03T17:01:09;32.90;85.60
26583;DHT22;14230;45.382;10.998;2022-08-03T17:03:52;32.80;86.10
26583;DHT22;14230;45.382;10.998;2022-08-03T17:06:35;32.80;86.50
26583;DHT22;14230;45.382;10.998;2022-08-03T17:09:05;32.80;86.80
26583;DHT22;14230;45.382;10.998;2022-08-03T17:11:41;32.70;87.00
26583;DHT22;14230;45.382;10.998;2022-08-03T17:14:15;32.70;87.30
26583;DHT22;14230;45.382;10.998;2022-08-03T17:16:44;32.70;87.30
26583;DHT22;14230;45.382;10.998;2022-08-03T17:19:21;32.70;87.30
26583;DHT22;14230;45.382;10.998;2022-08-03T17:27:01;32.60;87.80
26583;DHT22;14230;45.382;10.998;2022-08-03T17:29:31;32.60;88.10
26583;DHT22;14230;45.382;10.998;2022-08-03T17:32:02;32.50;88.30
26583;DHT22;14230;45.382;10.998;2022-08-03T17:34:37;32.40;88.20
26583;DHT22;14230;45.382;10.998;2022-08-03T17:37:11;32.40;88.20
26583;DHT22;14230;45.382;10.998;2022-08-03T17:40:00;32.30;88.30
26583;DHT22;14230;45.382;10.998;2022-08-03T17:42:30;32.30;88.40
26583;DHT22;14230;45.382;10.998;2022-08-03T17:45:01;32.30;89.00
26583;DHT22;14230;45.382;10.998;2022-08-03T17:47:32;32.30;89.50
26583;DHT22;14230;45.382;10.998;2022-08-03T17:50:12;32.20;89.50
26583;DHT22;14230;45.382;10.998;2022-08-03T17:53:06;32.10;89.70
26583;DHT22;14230;45.382;10.998;2022-08-03T17:56:20;32.10;90.10
26583;DHT22;14230;45.382;10.998;2022-08-03T18:05:49;32.10;90.80
26583;DHT22;14230;45.382;10.998;2022-08-03T18:08:42;32.00;91.10
26583;DHT22;14230;45.382;10.998;2022-08-03T18:11:12;32.10;91.30
26583;DHT22;14230;45.382;10.998;2022-08-03T18:13:56;32.10;91.30
26583;DHT22;14230;45.382;10.998;2022-08-03T18:16:42;32.00;91.40
26583;DHT22;14230;45.382;10.998;2022-08-03T18:19:10;31.90;91.50
26583;DHT22;14230;45.382;10.998;2022-08-03T18:21:41;31.90;91.90
26583;DHT22;14230;45.382;10.998;2022-08-03T18:24:29;31.90;92.00
26583;DHT22;14230;45.382;10.998;2022-08-03T18:26:58;31.90;92.40
26583;DHT22;14230;45.382;10.998;2022-08-03T18:29:29;31.80;92.50
26583;DHT22;14230;45.382;10.998;2022-08-03T18:31:58;31.70;93.40
26583;DHT22;14230;45.382;10.998;2022-08-03T18:34:36;31.60;93.70
26583;DHT22;14230;45.382;10.998;2022-08-03T18:37:22;31.50;93.90
26583;DHT22;14230;45.382;10.998;2022-08-03T18:39:56;31.40;94.10
26583;DHT22;14230;45.382;10.998;2022-08-03T18:42:24;31.40;94.60
26583;DHT22;14230;45.382;10.998;2022-08-03T18:44:54;31.20;94.90
26583;DHT22;14230;45.382;10.998;2022-08-03T18:50:40;31.00;96.00
26583;DHT22;14230;45.382;10.998;2022-08-03T18:53:52;30.90;96.60
26583;DHT22;14230;45.382;10.998;2022-08-03T19:02:27;30.60;98.00
26583;DHT22;14230;45.382;10.998;2022-08-03T19:05:04;30.50;98.90
26583;DHT22;14230;45.382;10.998;2022-08-03T19:07:35;30.40;99.80
26583;DHT22;14230;45.382;10.998;2022-08-03T19:10:09;30.30;99.90
26583;DHT22;14230;45.382;10.998;2022-08-03T19:12:50;30.20;99.90
26583;DHT22;14230;45.382;10.998;2022-08-03T19:15:26;30.10;99.90
26583;DHT22;14230;45.382;10.998;2022-08-03T19:18:03;30.00;99.90
26583;DHT22;14230;45.382;10.998;2022-08-03T19:20:37;29.80;99.90
26583;DHT22;14230;45.382;10.998;2022-08-03T19:23:05;29.80;99.90
26583;DHT22;14230;45.382;10.998;2022-08-03T19:25:37;29.70;99.90
26583;DHT22;14230;45.382;10.998;2022-08-03T19:28:06;29.60;99.90
26583;DHT22;14230;45.382;10.998;2022-08-03T19:30:36;29.60;99.90
26583;DHT22;14230;45.382;10.998;2022-08-03T19:33:11;29.60;99.90
26583;DHT22;14230;45.382;10.998;2022-08-03T19:35:43;29.50;99.90
26583;DHT22;14230;45.382;10.998;2022-08-03T19:38:22;29.50;99.90
26583;DHT22;14230;45.382;10.998;2022-08-03T19:40:58;29.50;99.90
26583;DHT22;14230;45.382;10.998;2022-08-03T19:43:35;29.50;99.90
26583;DHT22;14230;45.382;10.998;2022-08-03T19:46:27;29.50;99.90
26583;DHT22;14230;45.382;10.998;2022-08-03T19:49:10;29.40;99.90
26583;DHT22;14230;45.382;10.998;2022-08-03T19:51:43;29.40;99.90
26583;DHT22;14230;45.382;10.998;2022-08-03T19:54:36;29.40;99.90
26583;DHT22;14230;45.382;10.998;2022-08-03T19:57:24;29.30;99.90
26583;DHT22;14230;45.382;10.998;2022-08-03T19:59:55;29.30;99.90
26583;DHT22;14230;45.382;10.998;2022-08-03T20:02:23;29.30;99.90
26583;DHT22;14230;45.382;10.998;2022-08-03T20:04:57;29.30;99.90
26583;DHT22;14230;45.382;10.998;2022-08-03T20:07:45;29.30;99.90
26583;DHT22;14230;45.382;10.998;2022-08-03T20:10:15;29.20;99.90
26583;DHT22;14230;45.382;10.998;2022-08-03T20:12:45;29.20;99.90
26583;DHT22;14230;45.382;10.998;2022-08-03T20:15:13;29.20;99.90